createdAt,value
2018-03-21T00:00:23.485Z,90.10
2018-03-21T00:02:49.715Z,90.10
2018-03-21T00:05:15.939Z,90.00
2018-03-21T00:07:42.899Z,90.20
2018-03-21T00:10:09.845Z,90.20
2018-03-21T00:12:36.869Z,90.20
2018-03-21T00:15:03.062Z,90.10
2018-03-21T00:17:29.290Z,90.10
2018-03-21T00:19:56.249Z,90.10
2018-03-21T00:22:23.201Z,90.00
2018-03-21T00:24:50.217Z,90.10
2018-03-21T00:27:16.427Z,90.10
2018-03-21T00:29:42.672Z,90.20
2018-03-21T00:32:08.890Z,90.10
2018-03-21T00:34:35.864Z,90.40
2018-03-21T00:37:02.082Z,90.30
2018-03-21T00:39:29.424Z,90.50
2018-03-21T00:41:55.641Z,90.50
2018-03-21T00:44:21.856Z,90.50
2018-03-21T00:46:48.066Z,90.60
2018-03-21T00:49:15.028Z,90.60
2018-03-21T00:51:41.992Z,90.70
2018-03-21T00:54:08.962Z,90.80
2018-03-21T00:56:35.194Z,90.80
2018-03-21T00:59:01.408Z,90.90
2018-03-21T01:01:27.636Z,90.90
2018-03-21T01:03:53.870Z,91.30
2018-03-21T01:06:20.087Z,91.10
2018-03-21T01:08:46.302Z,91.10
2018-03-21T01:11:12.524Z,91.10
2018-03-21T01:13:39.773Z,91.20
2018-03-21T01:16:05.988Z,91.10
2018-03-21T01:18:32.207Z,91.30
2018-03-21T01:20:58.435Z,91.10
2018-03-21T01:23:24.998Z,91.20
2018-03-21T01:25:51.384Z,91.30
2018-03-21T01:28:17.600Z,91.30
2018-03-21T01:30:43.843Z,91.70
2018-03-21T01:33:10.071Z,91.40
2018-03-21T01:35:36.313Z,91.30
2018-03-21T01:38:02.567Z,91.20
2018-03-21T01:40:28.805Z,91.00
2018-03-21T01:42:55.061Z,90.90
2018-03-21T01:47:40.793Z,90.80
2018-03-21T01:50:07.771Z,90.70
2018-03-21T01:52:33.995Z,90.70
2018-03-21T01:55:00.959Z,90.20
2018-03-21T01:57:27.913Z,90.20
2018-03-21T01:59:54.878Z,90.20
2018-03-21T02:02:21.830Z,90.10
2018-03-21T02:04:49.757Z,90.20
2018-03-21T02:07:15.989Z,90.20
2018-03-21T02:09:42.201Z,90.10
2018-03-21T02:12:08.439Z,90.20
2018-03-21T02:14:34.678Z,90.30
2018-03-21T02:17:01.632Z,90.40
2018-03-21T02:19:28.588Z,90.30
2018-03-21T02:21:55.556Z,90.30
2018-03-21T02:24:21.778Z,90.30
2018-03-21T02:26:48.752Z,90.40
2018-03-21T02:29:14.959Z,90.40
2018-03-21T02:31:41.200Z,90.40
2018-03-21T02:34:07.391Z,90.40
2018-03-21T02:36:33.617Z,90.60
2018-03-21T02:38:59.840Z,90.60
2018-03-21T02:41:27.184Z,90.90
2018-03-21T02:43:53.399Z,90.80
2018-03-21T02:46:19.600Z,90.90
2018-03-21T02:48:45.831Z,91.10
2018-03-21T02:51:12.820Z,91.50
2018-03-21T02:53:39.336Z,91.50
2018-03-21T02:56:05.561Z,91.70
2018-03-21T02:58:31.757Z,91.70
2018-03-21T03:00:57.999Z,91.70
2018-03-21T03:03:24.210Z,91.80
2018-03-21T03:05:50.725Z,92.00
2018-03-21T03:08:16.941Z,92.10
2018-03-21T03:10:43.174Z,92.20
2018-03-21T03:13:09.398Z,92.30
2018-03-21T03:15:35.606Z,92.40
2018-03-21T03:18:02.592Z,92.60
2018-03-21T03:20:28.797Z,92.60
2018-03-21T03:22:55.740Z,92.90
2018-03-21T03:25:21.956Z,92.90
2018-03-21T03:27:48.180Z,93.30
2018-03-21T03:30:14.418Z,93.30
2018-03-21T03:32:40.640Z,93.60
2018-03-21T03:35:06.859Z,93.90
2018-03-21T03:37:33.843Z,94.30
2018-03-21T03:40:00.055Z,94.30
2018-03-21T03:42:27.031Z,94.50
2018-03-21T03:44:53.245Z,94.40
2018-03-21T03:47:20.213Z,94.70
2018-03-21T03:49:47.163Z,94.90
2018-03-21T03:52:14.406Z,95.00
2018-03-21T03:54:40.623Z,94.90
2018-03-21T03:57:07.583Z,94.90
2018-03-21T03:59:33.807Z,94.80
2018-03-21T04:02:00.021Z,94.90
2018-03-21T04:04:26.246Z,94.90
2018-03-21T04:06:53.211Z,95.20
2018-03-21T04:09:20.186Z,95.40
2018-03-21T04:11:46.401Z,95.30
2018-03-21T04:14:13.357Z,95.60
2018-03-21T04:16:40.309Z,95.60
2018-03-21T04:19:07.255Z,95.80
2018-03-21T04:21:33.466Z,95.70
2018-03-21T04:23:59.689Z,95.90
2018-03-21T04:26:25.919Z,95.90
2018-03-21T04:28:52.119Z,96.00
2018-03-21T04:31:18.629Z,96.00
2018-03-21T04:33:44.851Z,96.10
2018-03-21T04:36:11.048Z,96.10
2018-03-21T04:38:37.259Z,96.10
2018-03-21T04:41:03.503Z,96.20
2018-03-21T04:43:29.731Z,96.10
2018-03-21T04:45:55.966Z,96.20
2018-03-21T04:48:22.224Z,96.40
2018-03-21T04:50:48.470Z,96.40
2018-03-21T04:53:14.706Z,96.50
2018-03-21T04:55:40.934Z,96.40
2018-03-21T04:58:07.178Z,96.40
2018-03-21T05:00:33.406Z,96.40
2018-03-21T05:02:59.637Z,96.50
2018-03-21T05:05:25.910Z,96.60
2018-03-21T05:07:52.108Z,96.70
2018-03-21T05:10:18.351Z,99.50
2018-03-21T05:12:44.590Z,99.90
2018-03-21T05:15:10.866Z,99.80
2018-03-21T05:17:37.076Z,97.70
2018-03-21T05:20:03.313Z,96.00
2018-03-21T05:22:29.540Z,95.50
2018-03-21T05:24:55.759Z,95.70
2018-03-21T05:27:22.733Z,96.40
2018-03-21T05:29:49.687Z,96.30
2018-03-21T05:32:16.655Z,95.80
2018-03-21T05:34:42.879Z,95.80
2018-03-21T05:37:09.847Z,93.00
2018-03-21T05:39:36.074Z,93.00
2018-03-21T05:42:03.086Z,92.10
2018-03-21T05:44:29.343Z,92.10
2018-03-21T05:46:55.551Z,91.10
2018-03-21T05:49:21.766Z,90.80
2018-03-21T05:51:48.733Z,90.50
2018-03-21T05:54:14.965Z,90.50
2018-03-21T05:56:41.190Z,89.10
2018-03-21T05:59:08.160Z,87.60
2018-03-21T06:01:35.137Z,87.60
2018-03-21T06:04:01.355Z,87.60
2018-03-21T06:06:28.313Z,91.10
2018-03-21T06:08:55.299Z,91.50
2018-03-21T06:11:21.519Z,91.50
2018-03-21T06:13:47.757Z,91.10
2018-03-21T06:16:13.984Z,91.50
2018-03-21T06:18:40.192Z,90.10
2018-03-21T06:21:06.434Z,89.20
2018-03-21T06:23:32.657Z,88.80
2018-03-21T06:25:58.897Z,89.80
2018-03-21T06:28:25.131Z,90.60
2018-03-21T06:30:51.375Z,91.40
2018-03-21T06:33:17.587Z,92.00
2018-03-21T06:35:43.826Z,92.50
2018-03-21T06:38:10.063Z,93.00
2018-03-21T06:40:36.283Z,93.50
2018-03-21T06:43:03.259Z,94.70
2018-03-21T06:45:29.497Z,94.60
2018-03-21T06:47:56.013Z,95.00
2018-03-21T06:50:22.251Z,95.40
2018-03-21T06:52:48.495Z,95.90
2018-03-21T06:55:14.705Z,96.00
2018-03-21T06:57:40.921Z,96.40
2018-03-21T07:00:07.167Z,96.60
2018-03-21T07:02:33.395Z,96.80
2018-03-21T07:04:59.651Z,97.00
2018-03-21T07:07:26.639Z,97.30
2018-03-21T07:09:52.872Z,97.30
2018-03-21T07:12:19.097Z,97.40
2018-03-21T07:14:57.709Z,97.70
2018-03-21T07:17:23.930Z,97.80
2018-03-21T07:19:50.914Z,97.90
2018-03-21T07:22:17.177Z,97.90
2018-03-21T07:24:44.182Z,97.90
2018-03-21T07:27:11.533Z,98.00
2018-03-21T07:29:37.774Z,98.00
2018-03-21T07:32:04.027Z,98.20
2018-03-21T07:34:30.997Z,98.10
2018-03-21T07:36:57.986Z,98.00
2018-03-21T07:39:24.228Z,97.90
2018-03-21T07:41:50.446Z,98.00
2018-03-21T07:44:16.934Z,97.90
2018-03-21T07:46:43.932Z,98.00
2018-03-21T07:49:10.916Z,98.00
2018-03-21T07:51:37.145Z,98.00
2018-03-21T07:54:03.386Z,97.90
2018-03-21T07:56:29.624Z,98.00
2018-03-21T07:58:55.849Z,98.00
2018-03-21T08:01:22.857Z,99.90
2018-03-21T08:03:49.115Z,99.90
2018-03-21T08:06:15.444Z,99.90
2018-03-21T08:08:41.700Z,97.80
2018-03-21T08:11:07.918Z,96.70
2018-03-21T08:13:34.172Z,95.40
2018-03-21T08:16:00.409Z,94.60
2018-03-21T08:18:26.704Z,94.10
2018-03-21T08:20:53.668Z,92.30
2018-03-21T08:23:20.641Z,91.80
2018-03-21T08:25:46.889Z,91.80
2018-03-21T08:28:13.152Z,90.90
2018-03-21T08:30:39.375Z,87.50
2018-03-21T08:33:05.585Z,86.40
2018-03-21T08:35:31.865Z,87.00
2018-03-21T08:37:58.083Z,88.60
2018-03-21T08:40:24.300Z,90.00
2018-03-21T08:42:50.527Z,90.20
2018-03-21T08:45:17.511Z,91.50
2018-03-21T08:47:43.727Z,91.50
2018-03-21T08:50:10.684Z,92.00
2018-03-21T08:52:37.203Z,92.00
2018-03-21T08:55:03.474Z,92.00
2018-03-21T08:57:29.681Z,92.30
2018-03-21T08:59:55.903Z,92.50
2018-03-21T09:02:22.127Z,92.40
2018-03-21T09:04:48.365Z,92.60
2018-03-21T09:07:14.604Z,93.00
2018-03-21T09:09:40.834Z,93.00
2018-03-21T09:12:07.043Z,93.40
2018-03-21T09:14:33.588Z,93.50
2018-03-21T09:16:59.809Z,93.50
2018-03-21T09:19:26.023Z,93.40
2018-03-21T09:21:52.283Z,93.60
2018-03-21T09:24:18.497Z,93.80
2018-03-21T09:26:44.707Z,93.80
2018-03-21T09:29:11.665Z,92.60
2018-03-21T09:31:38.913Z,91.90
2018-03-21T09:34:05.125Z,91.90
2018-03-21T09:36:31.396Z,91.60
2018-03-21T09:38:57.611Z,90.80
2018-03-21T09:41:23.825Z,91.10
2018-03-21T09:43:50.063Z,90.90
2018-03-21T09:46:16.285Z,90.70
2018-03-21T09:48:43.239Z,90.50
2018-03-21T09:51:10.219Z,90.00
2018-03-21T09:53:36.435Z,90.00
2018-03-21T09:56:03.738Z,89.50
2018-03-21T09:58:29.947Z,89.50
2018-03-21T10:00:56.168Z,89.40
2018-03-21T10:03:22.380Z,88.80
2018-03-21T10:05:48.602Z,88.10
2018-03-21T10:08:14.844Z,87.50
2018-03-21T10:10:41.071Z,87.60
2018-03-21T10:13:07.358Z,87.10
2018-03-21T10:15:33.634Z,84.10
2018-03-21T10:17:59.844Z,83.80
2018-03-21T10:20:26.088Z,82.30
2018-03-21T10:22:52.304Z,82.00
2018-03-21T10:25:18.980Z,82.10
2018-03-21T10:27:45.934Z,79.70
2018-03-21T10:30:12.162Z,79.60
2018-03-21T10:32:38.400Z,79.40
2018-03-21T10:35:04.624Z,78.90
2018-03-21T10:37:30.846Z,79.10
2018-03-21T10:39:57.073Z,79.10
2018-03-21T10:42:23.676Z,78.90
2018-03-21T10:44:49.948Z,77.40
2018-03-21T10:47:17.115Z,77.80
2018-03-21T10:49:43.380Z,77.80
2018-03-21T10:52:09.640Z,76.70
2018-03-21T10:54:35.916Z,75.50
2018-03-21T10:57:02.913Z,74.40
2018-03-21T10:59:29.528Z,74.30
2018-03-21T11:02:02.627Z,72.00
2018-03-21T11:04:29.180Z,72.00
2018-03-21T11:06:55.421Z,70.20
2018-03-21T11:09:22.388Z,65.70
2018-03-21T11:11:48.625Z,65.70
2018-03-21T11:14:14.891Z,66.40
2018-03-21T11:16:41.128Z,66.60
2018-03-21T11:19:07.347Z,67.80
2018-03-21T11:21:34.347Z,66.60
2018-03-21T11:24:00.604Z,66.60
2018-03-21T11:26:27.173Z,63.50
2018-03-21T11:28:53.431Z,61.90
2018-03-21T11:31:20.382Z,62.60
2018-03-21T11:33:47.379Z,62.30
2018-03-21T11:36:13.597Z,62.30
2018-03-21T11:38:40.561Z,62.60
2018-03-21T11:41:06.776Z,62.50
2018-03-21T11:43:33.732Z,63.70
2018-03-21T11:46:00.698Z,65.10
2018-03-21T11:48:27.957Z,69.10
2018-03-21T11:50:54.957Z,72.50
2018-03-21T11:53:21.189Z,72.60
2018-03-21T11:55:47.418Z,76.20
2018-03-21T11:58:13.658Z,79.40
2018-03-21T12:00:39.921Z,81.30
2018-03-21T12:03:06.166Z,83.20
2018-03-21T12:05:32.655Z,84.50
2018-03-21T12:08:06.590Z,86.00
2018-03-21T12:10:33.571Z,86.10
2018-03-21T12:12:59.806Z,86.00
2018-03-21T12:15:26.030Z,86.20
2018-03-21T12:17:53.972Z,85.60
2018-03-21T12:20:20.188Z,85.60
2018-03-21T12:22:46.424Z,85.00
2018-03-21T12:25:12.668Z,84.60
2018-03-21T12:27:38.910Z,84.20
2018-03-21T12:30:05.143Z,83.70
2018-03-21T12:32:31.348Z,84.60
2018-03-21T12:34:58.316Z,83.40
2018-03-21T12:37:25.284Z,81.90
2018-03-21T12:39:51.539Z,81.80
2018-03-21T12:42:17.816Z,80.30
2018-03-21T12:44:44.115Z,78.50
2018-03-21T12:47:10.331Z,75.70
2018-03-21T12:49:37.296Z,72.10
2018-03-21T12:52:04.305Z,71.70
2018-03-21T12:54:30.542Z,71.60
2018-03-21T12:56:57.014Z,69.50
2018-03-21T12:59:23.262Z,66.90
2018-03-21T13:01:50.276Z,66.10
2018-03-21T13:04:16.513Z,65.40
2018-03-21T13:06:42.740Z,63.20
2018-03-21T13:09:08.954Z,61.10
2018-03-21T13:11:35.935Z,59.40
2018-03-21T13:14:02.207Z,59.40
2018-03-21T13:16:28.461Z,58.50
2018-03-21T13:18:55.442Z,55.30
2018-03-21T13:21:22.434Z,51.70
2018-03-21T13:23:48.698Z,51.60
2018-03-21T13:26:14.940Z,50.40
2018-03-21T13:28:41.175Z,52.40
2018-03-21T13:31:07.408Z,54.30
2018-03-21T13:33:33.642Z,55.20
2018-03-21T13:35:59.889Z,56.50
2018-03-21T13:38:26.147Z,56.60
2018-03-21T13:40:52.361Z,56.50
2018-03-21T13:43:18.639Z,54.50
2018-03-21T13:45:44.891Z,53.60
2018-03-21T13:48:11.132Z,54.60
2018-03-21T13:50:37.380Z,55.20
2018-03-21T13:53:03.627Z,55.70
2018-03-21T13:55:30.689Z,54.80
2018-03-21T13:57:57.684Z,55.20
2018-03-21T14:00:23.997Z,55.20
2018-03-21T14:02:50.965Z,54.70
2018-03-21T14:05:17.217Z,54.70
2018-03-21T14:07:43.441Z,54.80
2018-03-21T14:10:10.408Z,54.90
2018-03-21T14:12:36.621Z,55.00
2018-03-21T14:15:02.904Z,55.90
2018-03-21T14:17:29.144Z,56.70
2018-03-21T14:19:55.368Z,57.10
2018-03-21T14:22:21.687Z,58.20
2018-03-21T14:24:47.915Z,59.10
2018-03-21T14:27:14.308Z,59.80
2018-03-21T14:29:40.549Z,60.50
2018-03-21T14:32:06.777Z,60.20
2018-03-21T14:34:33.035Z,59.60
2018-03-21T14:36:59.299Z,59.90
2018-03-21T14:39:25.513Z,60.20
2018-03-21T14:41:51.748Z,60.40
2018-03-21T14:44:17.966Z,60.60
2018-03-21T14:46:44.947Z,62.00
2018-03-21T14:49:11.167Z,62.00
2018-03-21T14:51:38.130Z,64.30
2018-03-21T14:54:04.382Z,64.30
2018-03-21T14:56:30.653Z,65.40
2018-03-21T14:58:56.904Z,65.90
2018-03-21T15:01:23.146Z,64.90
2018-03-21T15:03:49.418Z,62.60
2018-03-21T15:06:15.658Z,61.20
2018-03-21T15:08:42.623Z,63.20
2018-03-21T15:11:09.596Z,59.90
2018-03-21T15:13:35.834Z,59.80
2018-03-21T15:16:02.122Z,56.10
2018-03-21T15:18:28.354Z,54.40
2018-03-21T15:20:54.568Z,53.90
2018-03-21T15:23:20.831Z,53.30
2018-03-21T15:25:47.064Z,51.90
2018-03-21T15:28:13.288Z,50.20
2018-03-21T15:30:39.532Z,49.90
2018-03-21T15:33:05.845Z,48.50
2018-03-21T15:35:32.052Z,48.20
2018-03-21T15:37:58.280Z,47.50
2018-03-21T15:40:24.862Z,46.40
2018-03-21T15:42:51.837Z,43.90
2018-03-21T15:45:18.856Z,43.60
2018-03-21T15:47:45.144Z,43.60
2018-03-21T15:50:12.113Z,47.50
2018-03-21T15:52:38.374Z,47.50
2018-03-21T15:55:04.678Z,46.50
2018-03-21T15:57:31.661Z,47.20
2018-03-21T15:59:57.893Z,47.10
2018-03-21T16:02:24.143Z,49.00
2018-03-21T16:04:50.459Z,49.80
2018-03-21T16:07:16.699Z,49.90
2018-03-21T16:09:43.691Z,56.80
2018-03-21T16:12:09.932Z,56.80
2018-03-21T16:14:36.199Z,52.70
2018-03-21T16:17:02.468Z,48.70
2018-03-21T16:19:28.699Z,48.10
2018-03-21T16:21:54.950Z,48.50
2018-03-21T16:24:21.914Z,50.40
2018-03-21T16:26:48.889Z,51.30
2018-03-21T16:29:15.131Z,51.20
2018-03-21T16:31:41.410Z,52.10
2018-03-21T16:34:07.647Z,53.00
2018-03-21T16:36:33.875Z,54.00
2018-03-21T16:39:00.105Z,54.70
2018-03-21T16:41:26.363Z,55.60
2018-03-21T16:43:52.614Z,56.60
2018-03-21T16:46:18.891Z,57.80
2018-03-21T16:48:45.865Z,59.40
2018-03-21T16:51:12.109Z,59.40
2018-03-21T16:53:39.111Z,61.90
2018-03-21T16:56:05.373Z,61.80
2018-03-21T16:58:31.619Z,62.90
2018-03-21T17:00:57.885Z,64.10
2018-03-21T17:03:24.899Z,66.40
2018-03-21T17:05:51.148Z,66.40
2018-03-21T17:08:17.378Z,67.50
2018-03-21T17:10:43.623Z,68.50
2018-03-21T17:13:09.932Z,69.60
2018-03-21T17:15:36.185Z,70.60
2018-03-21T17:18:02.478Z,72.00
2018-03-21T17:20:29.495Z,74.50
2018-03-21T17:22:55.760Z,74.40
2018-03-21T17:25:22.032Z,75.70
2018-03-21T17:27:48.270Z,77.10
2018-03-21T17:30:15.522Z,78.00
2018-03-21T17:32:42.522Z,78.70
2018-03-21T17:35:08.774Z,78.60
2018-03-21T17:37:35.046Z,79.30
2018-03-21T17:40:01.279Z,79.70
2018-03-21T17:42:27.562Z,80.40
2018-03-21T17:44:53.774Z,80.80
2018-03-21T17:47:20.014Z,81.10
2018-03-21T17:49:47.028Z,82.20
2018-03-21T17:52:13.293Z,82.10
2018-03-21T17:54:39.562Z,82.60
2018-03-21T17:57:06.569Z,83.80
2018-03-21T17:59:40.059Z,83.70
2018-03-21T18:02:06.327Z,84.30
2018-03-21T18:04:32.558Z,84.90
2018-03-21T18:06:58.842Z,85.30
2018-03-21T18:09:25.076Z,85.80
2018-03-21T18:11:51.333Z,86.40
2018-03-21T18:14:18.319Z,87.40
2018-03-21T18:16:44.579Z,87.40
2018-03-21T18:19:10.797Z,87.90
2018-03-21T18:21:37.034Z,88.30
2018-03-21T18:24:04.038Z,88.90
2018-03-21T18:26:30.299Z,88.80
2018-03-21T18:28:56.605Z,89.00
2018-03-21T18:31:22.857Z,89.10
2018-03-21T18:33:49.128Z,89.20
2018-03-21T18:36:16.153Z,89.50
2018-03-21T18:38:42.385Z,89.40
2018-03-21T18:41:08.681Z,89.70
2018-03-21T18:43:35.733Z,90.30
2018-03-21T18:46:02.067Z,90.30
2018-03-21T18:48:28.364Z,90.40
2018-03-21T18:50:54.658Z,90.50
2018-03-21T18:53:20.977Z,90.60
2018-03-21T18:55:47.309Z,90.60
2018-03-21T18:58:13.763Z,90.60
2018-03-21T19:00:40.135Z,90.90
2018-03-21T19:03:07.174Z,91.10
2018-03-21T19:05:34.220Z,91.20
2018-03-21T19:08:00.519Z,91.10
2018-03-21T19:10:26.838Z,91.20
2018-03-21T19:12:53.888Z,91.40
2018-03-21T19:15:20.250Z,91.10
2018-03-21T19:17:47.273Z,90.90
2018-03-21T19:20:13.606Z,90.90
2018-03-21T19:22:39.931Z,91.00
2018-03-21T19:25:06.238Z,91.10
2018-03-21T19:27:33.298Z,91.40
2018-03-21T19:29:59.609Z,91.40
2018-03-21T19:32:25.926Z,91.50
2018-03-21T19:34:52.215Z,91.60
2018-03-21T19:37:19.259Z,92.10
2018-03-21T19:39:45.583Z,91.70
2018-03-21T19:42:11.929Z,91.80
2018-03-21T19:44:38.249Z,91.90
2018-03-21T19:47:05.200Z,91.90
2018-03-21T19:49:31.521Z,92.00
2018-03-21T19:51:57.842Z,92.10
2018-03-21T19:54:24.252Z,92.10
2018-03-21T19:56:50.532Z,92.10
2018-03-21T19:59:17.549Z,92.20
2018-03-21T20:01:44.801Z,92.20
2018-03-21T20:04:11.102Z,92.30
2018-03-21T20:06:38.160Z,92.70
2018-03-21T20:09:06.104Z,92.70
2018-03-21T20:11:32.741Z,92.70
2018-03-21T20:13:59.128Z,92.90
2018-03-21T20:16:26.165Z,93.10
2018-03-21T20:18:52.523Z,93.10
2018-03-21T20:21:18.860Z,93.20
2018-03-21T20:23:45.463Z,93.20
2018-03-21T20:26:11.785Z,93.20
2018-03-21T20:28:38.077Z,93.30
2018-03-21T20:31:04.456Z,93.30
2018-03-21T20:33:30.767Z,93.40
2018-03-21T20:35:57.092Z,93.40
2018-03-21T20:38:23.492Z,93.40
2018-03-21T20:40:50.536Z,93.40
2018-03-21T20:43:16.877Z,93.40
2018-03-21T20:45:43.796Z,93.50
2018-03-21T20:48:10.098Z,93.50
2018-03-21T20:50:37.396Z,93.50
2018-03-21T20:53:03.743Z,93.50
2018-03-21T20:55:30.075Z,93.60
2018-03-21T20:57:56.498Z,93.70
2018-03-21T21:00:22.847Z,93.70
2018-03-21T21:02:50.212Z,93.80
2018-03-21T21:05:16.538Z,93.80
2018-03-21T21:07:43.700Z,93.90
2018-03-21T21:10:10.761Z,93.80
2018-03-21T21:12:37.795Z,94.00
2018-03-21T21:15:04.131Z,94.00
2018-03-21T21:17:30.434Z,94.10
2018-03-21T21:19:56.993Z,94.20
2018-03-21T21:22:23.281Z,94.30
2018-03-21T21:24:49.562Z,94.30
2018-03-21T21:27:15.871Z,94.30
2018-03-21T21:29:42.919Z,94.50
2018-03-21T21:32:09.490Z,94.50
2018-03-21T21:34:36.464Z,94.40
2018-03-21T21:37:02.727Z,94.40
2018-03-21T21:39:29.017Z,94.30
2018-03-21T21:41:56.047Z,94.20
2018-03-21T21:44:22.316Z,94.20
2018-03-21T21:46:48.557Z,94.10
2018-03-21T21:49:14.824Z,94.00
2018-03-21T21:51:41.071Z,94.00
2018-03-21T21:54:07.311Z,94.20
2018-03-21T21:56:33.576Z,94.30
2018-03-21T21:58:59.787Z,94.40
2018-03-21T22:01:26.021Z,94.50
2018-03-21T22:03:52.989Z,94.40
2018-03-21T22:06:19.212Z,94.40
2018-03-21T22:08:46.180Z,94.50
2018-03-21T22:11:12.411Z,94.50
2018-03-21T22:13:39.371Z,94.50
2018-03-21T22:16:05.599Z,94.40
2018-03-21T22:18:32.600Z,94.60
2018-03-21T22:20:58.838Z,94.50
2018-03-21T22:23:25.052Z,94.60
2018-03-21T22:25:52.032Z,94.60
2018-03-21T22:28:18.242Z,94.60
2018-03-21T22:30:45.218Z,94.70
2018-03-21T22:33:11.459Z,94.70
2018-03-21T22:35:37.671Z,94.60
2018-03-21T22:38:04.629Z,94.90
2018-03-21T22:40:30.838Z,94.70
2018-03-21T22:42:57.076Z,94.40
2018-03-21T22:45:23.297Z,94.60
2018-03-21T22:47:49.541Z,94.60
2018-03-21T22:50:15.769Z,94.70
2018-03-21T22:52:41.958Z,94.90
2018-03-21T22:55:08.503Z,94.90
2018-03-21T22:57:34.701Z,95.00
2018-03-21T23:00:00.960Z,95.00
2018-03-21T23:02:27.212Z,95.10
2018-03-21T23:04:53.438Z,95.00
2018-03-21T23:07:19.680Z,94.90
2018-03-21T23:09:45.890Z,95.00
2018-03-21T23:12:12.101Z,94.90
2018-03-21T23:14:39.089Z,94.90
2018-03-21T23:17:05.307Z,94.90
2018-03-21T23:19:32.280Z,94.70
2018-03-21T23:21:58.487Z,94.70
2018-03-21T23:24:25.040Z,94.60
2018-03-21T23:26:52.009Z,94.80
2018-03-21T23:29:18.967Z,94.60
2018-03-21T23:31:45.919Z,94.60
2018-03-21T23:34:12.882Z,94.70
2018-03-21T23:36:39.852Z,94.70
2018-03-21T23:39:06.801Z,94.70
2018-03-21T23:41:33.799Z,94.80
2018-03-21T23:44:00.032Z,94.80
2018-03-21T23:46:26.253Z,94.90
2018-03-21T23:48:52.469Z,95.00
2018-03-21T23:51:19.448Z,95.00
2018-03-21T23:53:46.430Z,94.90
2018-03-21T23:56:12.657Z,94.90
2018-03-21T23:58:39.152Z,94.90
